Iota, Louisiana
Current Conditions -  °F | °C
As of 8:55 PM on Thursday 18 Dec 2014 (Local Time) from K3R7 Reporting Station
Overcast Overcast  
Wind Chill: 55°   Ceiling: 1500
Heat Index: 55°   Visibility: 10mi
Dew Point: 52°   Wind: 6mph
Humidity: 92%   Direction: 40°NE
Pressure: 30.12"   Gusts: NA
Location:  30.33°N, 92.5°W
Report Text: K3R7 190255Z AUTO 04005KT 10SM OVC015 13/11 A3012 RMK AO2 T01250112
Loading
Personal Weather Stations






























Interactive Weather Map New forecast layout! Learn more

10-Day Weather Forecast

Advertisements
Track Severe Weather on mobile